createdAt,value
2022-08-02T00:00:09.810Z,94917.13
2022-08-02T00:02:36.862Z,94912.88
2022-08-02T00:05:04.600Z,94911.25
2022-08-02T00:07:31.283Z,94905.72
2022-08-02T00:09:57.989Z,94910.22
2022-08-02T00:12:25.038Z,94910.03
2022-08-02T00:14:52.254Z,94916.84
2022-08-02T00:17:19.127Z,94913.31
2022-08-02T00:19:46.330Z,94911.41
2022-08-02T00:22:13.507Z,94917.41
2022-08-02T00:24:40.707Z,94904.13
2022-08-02T00:27:10.499Z,94917.38
2022-08-02T00:29:52.153Z,94916.13
2022-08-02T00:32:22.940Z,94912.81
2022-08-02T00:34:50.606Z,94919.13
2022-08-02T00:37:17.360Z,94913.97
2022-08-02T00:39:44.272Z,94914.16
2022-08-02T00:42:14.230Z,94914.41
2022-08-02T00:44:41.275Z,94915.22
2022-08-02T00:47:07.987Z,94907.72
2022-08-02T00:49:34.773Z,94920.88
2022-08-02T00:52:02.065Z,94919.66
2022-08-02T00:54:28.839Z,94918.09
2022-08-02T00:56:55.604Z,94913.88
2022-08-02T00:59:22.557Z,94910.50
2022-08-02T01:01:55.968Z,94921.91
2022-08-02T01:04:26.810Z,94921.34
2022-08-02T01:07:00.437Z,94915.25
2022-08-02T01:09:27.840Z,94905.56
2022-08-02T01:11:54.925Z,94920.25
2022-08-02T01:14:24.599Z,94920.75
2022-08-02T01:17:06.571Z,94913.03
2022-08-02T01:19:43.325Z,94912.38
2022-08-02T01:22:34.676Z,94915.81
2022-08-02T01:25:12.730Z,94920.06
2022-08-02T01:27:57.861Z,94922.31
2022-08-02T01:30:25.804Z,94927.00
2022-08-02T01:32:58.284Z,94917.13
2022-08-02T01:35:50.999Z,94924.53
2022-08-02T01:38:29.364Z,94920.50
2022-08-02T01:40:58.650Z,94917.72
2022-08-02T01:43:26.607Z,94926.53
2022-08-02T01:45:54.360Z,94911.66
2022-08-02T01:48:23.261Z,94922.56
2022-08-02T01:50:52.048Z,94925.06
2022-08-02T01:53:21.752Z,94915.47
2022-08-02T01:55:58.121Z,94905.34
2022-08-02T01:58:29.956Z,94924.28
2022-08-02T02:00:58.288Z,94927.81
2022-08-02T02:03:27.089Z,94932.25
2022-08-02T02:05:57.455Z,94919.06
2022-08-02T02:08:29.084Z,94923.81
2022-08-02T02:10:57.652Z,94920.69
2022-08-02T02:13:45.328Z,94909.56
2022-08-02T02:16:14.089Z,94922.47
2022-08-02T02:18:43.902Z,94918.03
2022-08-02T02:21:13.235Z,94909.03
2022-08-02T02:23:40.758Z,94920.75
2022-08-02T02:26:11.586Z,94921.53
2022-08-02T02:28:40.299Z,94925.56
2022-08-02T02:31:12.160Z,94918.97
2022-08-02T02:33:50.397Z,94925.50
2022-08-02T02:36:19.046Z,94924.47
2022-08-02T02:38:47.946Z,94923.94
2022-08-02T02:41:17.554Z,94925.34
2022-08-02T02:43:45.892Z,94925.28
2022-08-02T02:46:13.337Z,94919.84
2022-08-02T02:48:40.645Z,94919.84
2022-08-02T02:51:13.689Z,94917.22
2022-08-02T02:54:33.269Z,94916.44
2022-08-02T02:56:30.379Z,94916.78
2022-08-02T02:58:57.605Z,94925.34
2022-08-02T03:01:55.078Z,94927.25
2022-08-02T03:04:22.033Z,94920.19
2022-08-02T03:06:48.891Z,94924.31
2022-08-02T03:09:15.675Z,94924.97
2022-08-02T03:11:43.147Z,94925.59
2022-08-02T03:14:11.830Z,94933.84
2022-08-02T03:16:56.826Z,94924.78
2022-08-02T03:19:23.916Z,94927.53
2022-08-02T03:22:00.153Z,94921.63
2022-08-02T03:24:28.114Z,94930.41
2022-08-02T03:26:55.880Z,94920.25
2022-08-02T03:29:22.783Z,94926.88
2022-08-02T03:31:50.103Z,94933.25
2022-08-02T03:34:17.230Z,94933.88
2022-08-02T03:36:50.477Z,94907.19
2022-08-02T03:39:19.939Z,94921.94
2022-08-02T03:41:48.519Z,94933.25
2022-08-02T03:44:16.152Z,94929.44
2022-08-02T03:46:44.391Z,94935.47
2022-08-02T03:49:11.571Z,94934.13
2022-08-02T03:51:39.140Z,94932.38
2022-08-02T03:54:06.538Z,94937.13
2022-08-02T03:56:34.702Z,94931.19
2022-08-02T03:59:13.099Z,94938.44
2022-08-02T04:01:40.516Z,94946.69
2022-08-02T04:04:08.302Z,94957.84
2022-08-02T04:06:35.127Z,94957.91
2022-08-02T04:09:07.288Z,94962.84
2022-08-02T04:11:34.145Z,94961.13
2022-08-02T04:14:04.900Z,94970.13
2022-08-02T04:16:40.990Z,94968.19
2022-08-02T04:19:14.923Z,94967.50
2022-08-02T04:21:51.186Z,94958.13
2022-08-02T04:24:25.277Z,94965.16
2022-08-02T04:26:58.151Z,94968.16
2022-08-02T04:29:35.124Z,94970.63
2022-08-02T04:32:05.492Z,94946.16
2022-08-02T04:34:32.297Z,94962.84
2022-08-02T04:37:00.154Z,94966.59
2022-08-02T04:39:27.988Z,94962.03
2022-08-02T04:41:57.786Z,94964.50
2022-08-02T04:44:25.316Z,94961.38
2022-08-02T04:46:52.827Z,94966.94
2022-08-02T04:49:22.747Z,94965.25
2022-08-02T04:51:49.618Z,94967.88
2022-08-02T04:54:16.667Z,94965.31
2022-08-02T04:56:45.726Z,94968.91
2022-08-02T04:59:12.793Z,94964.44
2022-08-02T05:01:42.328Z,94963.28
2022-08-02T05:04:09.201Z,94972.00
2022-08-02T05:06:36.085Z,94966.75
2022-08-02T05:09:03.156Z,94965.97
2022-08-02T05:11:36.494Z,94968.41
2022-08-02T05:14:05.294Z,94978.41
2022-08-02T05:16:32.616Z,94984.94
2022-08-02T05:19:01.203Z,94981.38
2022-08-02T05:21:29.309Z,94982.03
2022-08-02T05:23:56.108Z,94979.78
2022-08-02T05:26:22.863Z,94980.91
2022-08-02T05:28:49.860Z,94976.66
2022-08-02T05:31:16.718Z,94974.19
2022-08-02T05:33:43.494Z,94975.00
2022-08-02T05:36:10.348Z,94986.69
2022-08-02T05:38:37.882Z,94979.56
2022-08-02T05:41:05.721Z,94988.72
2022-08-02T05:43:32.830Z,94991.63
2022-08-02T05:46:00.264Z,94996.06
2022-08-02T05:48:31.638Z,94988.38
2022-08-02T05:51:17.104Z,94991.19
2022-08-02T05:54:01.360Z,94983.06
2022-08-02T05:56:56.150Z,94989.41
2022-08-02T05:59:44.473Z,94993.28
2022-08-02T06:02:30.869Z,94999.97
2022-08-02T06:05:21.128Z,95004.06
2022-08-02T06:07:50.051Z,94998.28
2022-08-02T06:10:20.708Z,94998.22
2022-08-02T06:12:56.438Z,94999.22
2022-08-02T06:15:23.205Z,95004.25
2022-08-02T06:17:50.643Z,95003.44
2022-08-02T06:20:20.170Z,95003.56
2022-08-02T06:22:47.425Z,95000.00
2022-08-02T06:25:50.997Z,94997.56
2022-08-02T06:28:03.875Z,95005.72
2022-08-02T06:30:37.156Z,94996.75
2022-08-02T06:33:03.879Z,94996.53
2022-08-02T06:36:03.184Z,95004.25
2022-08-02T06:38:34.171Z,95018.28
2022-08-02T06:41:12.083Z,95012.09
2022-08-02T06:43:54.735Z,95017.09
2022-08-02T06:47:10.203Z,94998.91
2022-08-02T06:49:09.083Z,95004.47
2022-08-02T06:51:36.062Z,95004.38
2022-08-02T06:54:02.892Z,94988.00
2022-08-02T06:56:29.740Z,94997.84
2022-08-02T06:58:56.459Z,94991.34
2022-08-02T07:01:23.591Z,95003.41
2022-08-02T07:03:50.507Z,94997.16
2022-08-02T07:06:17.384Z,95000.41
2022-08-02T07:08:59.428Z,95002.94
2022-08-02T07:11:31.036Z,94999.78
2022-08-02T07:13:57.815Z,95002.00
2022-08-02T07:16:24.645Z,95002.97
2022-08-02T07:18:51.374Z,95001.28
2022-08-02T07:21:18.271Z,94999.56
2022-08-02T07:24:05.210Z,95003.13
2022-08-02T07:26:31.988Z,95001.94
2022-08-02T07:28:58.722Z,94996.88
2022-08-02T07:31:25.457Z,94985.78
2022-08-02T07:33:52.897Z,94995.47
2022-08-02T07:36:22.506Z,94993.59
2022-08-02T07:38:50.531Z,94986.97
2022-08-02T07:41:17.364Z,94998.22
2022-08-02T07:43:44.105Z,94995.94
2022-08-02T07:46:10.808Z,94991.59
2022-08-02T07:48:37.604Z,94987.00
2022-08-02T07:51:04.392Z,94988.97
2022-08-02T07:53:51.500Z,94991.66
2022-08-02T07:56:17.964Z,94998.75
2022-08-02T07:58:44.775Z,94990.31
2022-08-02T08:01:11.605Z,94990.88
2022-08-02T08:03:38.394Z,94994.47
2022-08-02T08:06:05.353Z,94996.06
2022-08-02T08:08:32.095Z,94991.81
2022-08-02T08:10:58.880Z,94982.69
2022-08-02T08:13:25.672Z,94983.81
2022-08-02T08:15:52.793Z,94981.31
2022-08-02T08:18:21.499Z,94988.09
2022-08-02T08:20:48.727Z,94988.66
2022-08-02T08:23:15.435Z,94987.19
2022-08-02T08:25:43.160Z,94977.84
2022-08-02T08:28:10.019Z,94977.16
2022-08-02T08:30:36.739Z,94965.47
2022-08-02T08:33:04.495Z,94980.63
2022-08-02T08:35:31.377Z,94973.53
2022-08-02T08:37:58.202Z,94968.53
2022-08-02T08:40:25.596Z,94974.81
2022-08-02T08:42:52.935Z,94974.22
2022-08-02T08:45:19.680Z,94970.56
2022-08-02T08:47:55.170Z,94978.91
2022-08-02T08:50:25.900Z,94975.41
2022-08-02T08:53:12.383Z,94969.22
2022-08-02T08:55:41.077Z,94974.84
2022-08-02T08:58:07.830Z,94975.91
2022-08-02T09:00:35.922Z,94963.31
2022-08-02T09:03:06.737Z,94968.44
2022-08-02T09:05:38.432Z,94967.63
2022-08-02T09:08:06.413Z,94973.06
2022-08-02T09:10:46.452Z,94968.97
2022-08-02T09:13:31.190Z,94967.09
2022-08-02T09:16:12.792Z,94968.56
2022-08-02T09:18:46.718Z,94960.59
2022-08-02T09:21:15.931Z,94957.63
2022-08-02T09:23:46.263Z,94951.47
2022-08-02T09:26:15.721Z,94964.69
2022-08-02T09:28:46.623Z,94954.84
2022-08-02T09:31:18.952Z,94960.09
2022-08-02T09:33:58.099Z,94960.16
2022-08-02T09:36:25.796Z,94957.38
2022-08-02T09:39:00.144Z,94952.50
2022-08-02T09:41:35.296Z,94946.00
2022-08-02T09:44:06.456Z,94953.25
2022-08-02T09:46:39.306Z,94953.66
2022-08-02T09:49:17.417Z,94949.50
2022-08-02T09:51:47.203Z,94948.72
2022-08-02T09:54:27.715Z,94939.78
2022-08-02T09:56:57.641Z,94930.19
2022-08-02T09:59:26.016Z,94944.13
2022-08-02T10:02:01.742Z,94937.19
2022-08-02T10:04:33.798Z,94943.75
2022-08-02T10:07:04.406Z,94937.97
2022-08-02T10:09:31.994Z,94944.19
2022-08-02T10:12:00.211Z,94936.75
2022-08-02T10:14:27.876Z,94940.16
2022-08-02T10:16:57.429Z,94930.97
2022-08-02T10:20:03.207Z,94935.66
2022-08-02T10:22:14.315Z,94926.34
2022-08-02T10:24:47.985Z,94941.06
2022-08-02T10:27:21.276Z,94929.47
2022-08-02T10:29:54.051Z,94930.84
2022-08-02T10:32:33.259Z,94931.75
2022-08-02T10:35:19.670Z,94920.97
2022-08-02T10:38:01.203Z,94923.22
2022-08-02T10:40:52.541Z,94919.81
2022-08-02T10:43:31.568Z,94935.69
2022-08-02T10:46:35.733Z,94936.38
2022-08-02T10:52:02.659Z,94928.69
2022-08-02T10:54:36.700Z,94928.72
2022-08-02T10:57:15.290Z,94929.38
2022-08-02T10:59:42.638Z,94921.59
2022-08-02T11:02:09.784Z,94924.44
2022-08-02T11:04:36.546Z,94919.28
2022-08-02T11:07:18.292Z,94918.34
2022-08-02T11:09:50.371Z,94914.06
2022-08-02T11:12:19.715Z,94909.09
2022-08-02T11:15:03.872Z,94909.78
2022-08-02T11:17:55.159Z,94912.22
2022-08-02T11:20:23.895Z,94909.16
2022-08-02T11:22:53.250Z,94917.38
2022-08-02T11:25:22.723Z,94909.03
2022-08-02T11:27:49.664Z,94918.81
2022-08-02T11:30:17.253Z,94922.53
2022-08-02T11:32:44.133Z,94921.44
2022-08-02T11:35:11.157Z,94917.63
2022-08-02T11:37:40.121Z,94919.31
2022-08-02T11:40:19.635Z,94909.84
2022-08-02T11:42:51.326Z,94911.16
2022-08-02T11:45:21.448Z,94914.41
2022-08-02T11:47:54.387Z,94911.75
2022-08-02T11:50:29.936Z,94910.53
2022-08-02T11:52:57.800Z,94907.19
2022-08-02T11:55:32.155Z,94901.03
2022-08-02T11:58:04.492Z,94905.94
2022-08-02T12:00:32.457Z,94906.78
2022-08-02T12:02:59.481Z,94903.78
2022-08-02T12:08:19.090Z,94899.97
2022-08-02T12:10:50.335Z,94888.53
2022-08-02T12:13:17.181Z,94894.09
2022-08-02T12:15:45.585Z,94899.00
2022-08-02T12:18:33.593Z,94911.94
2022-08-02T12:21:00.475Z,94899.34
2022-08-02T12:23:28.023Z,94903.56
2022-08-02T12:26:01.508Z,94904.19
2022-08-02T12:28:28.432Z,94900.69
2022-08-02T12:31:00.409Z,94897.31
2022-08-02T12:33:29.969Z,94901.91
2022-08-02T12:35:57.157Z,94902.59
2022-08-02T12:38:23.971Z,94900.59
2022-08-02T12:40:50.722Z,94902.03
2022-08-02T12:43:20.774Z,94897.56
2022-08-02T12:45:53.386Z,94895.31
2022-08-02T12:48:56.639Z,94887.56
2022-08-02T12:51:56.734Z,94896.97
2022-08-02T12:54:20.939Z,94899.41
2022-08-02T12:56:58.529Z,94891.25
2022-08-02T12:59:39.049Z,94879.09
2022-08-02T13:02:14.635Z,94878.63
2022-08-02T13:04:49.649Z,94880.59
2022-08-02T13:07:18.566Z,94873.03
2022-08-02T13:09:46.875Z,94875.91
2022-08-02T13:12:14.319Z,94891.53
2022-08-02T13:14:42.647Z,94885.50
2022-08-02T13:17:13.741Z,94893.16
2022-08-02T13:19:42.276Z,94882.34
2022-08-02T13:22:11.434Z,94891.97
2022-08-02T13:24:55.299Z,94894.06
2022-08-02T13:27:24.323Z,94891.69
2022-08-02T13:29:52.106Z,94887.28
2022-08-02T13:32:19.592Z,94883.44
2022-08-02T13:34:46.894Z,94878.41
2022-08-02T13:37:14.339Z,94876.88
2022-08-02T13:39:41.288Z,94889.75
2022-08-02T13:42:08.275Z,94882.38
2022-08-02T13:44:43.429Z,94884.50
2022-08-02T13:47:11.475Z,94879.63
2022-08-02T13:49:50.583Z,94880.72
2022-08-02T13:52:19.800Z,94880.44
2022-08-02T13:54:46.614Z,94887.50
2022-08-02T13:57:13.281Z,94881.78
2022-08-02T13:59:56.570Z,94895.06
2022-08-02T14:02:28.405Z,94893.63
2022-08-02T14:04:55.524Z,94888.03
2022-08-02T14:07:22.534Z,94881.88
2022-08-02T14:09:50.451Z,94892.09
2022-08-02T14:12:17.396Z,94882.25
2022-08-02T14:14:44.353Z,94879.78
2022-08-02T14:17:11.798Z,94885.50
2022-08-02T14:19:38.528Z,94892.25
2022-08-02T14:22:11.448Z,94885.72
2022-08-02T14:24:40.194Z,94883.91
2022-08-02T14:27:07.112Z,94886.88
2022-08-02T14:29:34.009Z,94885.66
2022-08-02T14:32:00.936Z,94883.97
2022-08-02T14:34:28.144Z,94877.94
2022-08-02T14:36:56.643Z,94880.06
2022-08-02T14:39:23.486Z,94873.78
2022-08-02T14:41:59.666Z,94884.44
2022-08-02T14:44:28.840Z,94885.81
2022-08-02T14:46:55.978Z,94874.19
2022-08-02T14:49:25.546Z,94883.66
2022-08-02T14:51:53.811Z,94881.06
2022-08-02T14:54:20.879Z,94876.41
2022-08-02T14:56:56.903Z,94879.47
2022-08-02T14:59:23.809Z,94876.25
2022-08-02T15:01:50.831Z,94871.94
2022-08-02T15:04:18.288Z,94862.00
2022-08-02T15:06:45.154Z,94862.97
2022-08-02T15:09:13.581Z,94871.22
2022-08-02T15:11:46.929Z,94873.53
2022-08-02T15:14:25.789Z,94872.16
2022-08-02T15:16:58.404Z,94877.09
2022-08-02T15:19:56.142Z,94876.78
2022-08-02T15:22:19.205Z,94878.50
2022-08-02T15:24:47.782Z,94875.13
2022-08-02T15:27:15.626Z,94871.47
2022-08-02T15:29:46.747Z,94886.59
2022-08-02T15:32:17.465Z,94881.41
2022-08-02T15:34:44.826Z,94881.00
2022-08-02T15:37:11.942Z,94881.66
2022-08-02T15:39:38.683Z,94881.59
2022-08-02T15:42:05.512Z,94889.88
2022-08-02T15:44:32.362Z,94890.16
2022-08-02T15:46:59.161Z,94889.91
2022-08-02T15:49:26.184Z,94887.88
2022-08-02T15:51:53.984Z,94883.63
2022-08-02T15:54:20.967Z,94889.88
2022-08-02T15:56:47.894Z,94890.69
2022-08-02T15:59:15.101Z,94896.84
2022-08-02T16:01:46.653Z,94882.22
2022-08-02T16:04:14.506Z,94896.53
2022-08-02T16:06:41.311Z,94892.16
2022-08-02T16:09:10.267Z,94899.66
2022-08-02T16:11:37.169Z,94899.91
2022-08-02T16:14:04.146Z,94889.66
2022-08-02T16:16:34.163Z,94903.13
2022-08-02T16:19:47.734Z,94895.81
2022-08-02T16:21:50.384Z,94903.84
2022-08-02T16:24:17.470Z,94913.31
2022-08-02T16:26:44.508Z,94919.75
2022-08-02T16:29:11.631Z,94904.78
2022-08-02T16:31:42.509Z,94910.72
2022-08-02T16:34:10.105Z,94908.72
2022-08-02T16:36:37.795Z,94914.78
2022-08-02T16:39:05.400Z,94920.38
2022-08-02T16:41:51.337Z,94917.16
2022-08-02T16:44:29.221Z,94924.78
2022-08-02T16:47:00.964Z,94918.81
2022-08-02T16:50:04.632Z,94929.47
2022-08-02T16:52:18.785Z,94929.13
2022-08-02T16:54:49.292Z,94935.69
2022-08-02T16:57:19.560Z,94943.16
2022-08-02T16:59:58.207Z,94925.72
2022-08-02T17:02:26.630Z,94930.78
2022-08-02T17:04:54.818Z,94935.44
2022-08-02T17:08:07.566Z,94935.03
2022-08-02T17:10:09.921Z,94941.41
2022-08-02T17:12:38.053Z,94940.97
2022-08-02T17:16:16.540Z,94949.94
2022-08-02T17:17:53.808Z,94951.56
2022-08-02T17:20:20.825Z,94951.66
2022-08-02T17:22:47.751Z,94948.59
2022-08-02T17:25:17.393Z,94953.31
2022-08-02T17:27:45.265Z,94959.19
2022-08-02T17:30:13.549Z,94950.94
2022-08-02T17:32:45.661Z,94954.81
2022-08-02T17:35:15.656Z,94960.19
2022-08-02T17:37:54.519Z,94955.22
2022-08-02T17:40:26.921Z,94959.16
2022-08-02T17:42:53.656Z,94966.09
2022-08-02T17:45:25.694Z,94964.94
2022-08-02T17:48:04.304Z,94968.91
2022-08-02T17:50:34.115Z,94958.81
2022-08-02T17:53:01.787Z,94972.00
2022-08-02T17:55:31.263Z,94981.31
2022-08-02T17:57:59.715Z,94985.91
2022-08-02T18:00:37.634Z,94978.22
2022-08-02T18:03:07.883Z,94989.88
2022-08-02T18:05:40.148Z,94992.22
2022-08-02T18:08:23.285Z,95001.50
2022-08-02T18:10:54.395Z,94995.69
2022-08-02T18:13:21.718Z,95001.09
2022-08-02T18:15:52.407Z,94999.94
2022-08-02T18:18:29.880Z,95003.81
2022-08-02T18:20:58.717Z,95010.78
2022-08-02T18:23:44.222Z,95011.53
2022-08-02T18:26:17.815Z,95013.09
2022-08-02T18:28:47.681Z,95018.91
2022-08-02T18:31:22.774Z,95016.94
2022-08-02T18:34:00.206Z,95016.94
2022-08-02T18:36:29.723Z,95024.25
2022-08-02T18:38:57.201Z,95026.25
2022-08-02T18:44:15.747Z,95028.50
2022-08-02T18:46:44.295Z,95030.03
2022-08-02T18:49:15.221Z,95033.13
2022-08-02T18:51:43.957Z,95033.81
2022-08-02T18:54:10.874Z,95034.91
2022-08-02T18:56:39.073Z,95034.78
2022-08-02T18:59:07.657Z,95043.16
2022-08-02T19:01:39.492Z,95044.44
2022-08-02T19:04:15.570Z,95050.84
2022-08-02T19:06:54.131Z,95044.63
2022-08-02T19:09:21.074Z,95046.28
2022-08-02T19:11:48.384Z,95055.44
2022-08-02T19:14:27.213Z,95057.53
2022-08-02T19:17:16.139Z,95052.53
2022-08-02T19:19:55.196Z,95058.03
2022-08-02T19:22:22.912Z,95052.81
2022-08-02T19:24:56.430Z,95060.63
2022-08-02T19:27:32.098Z,95064.25
2022-08-02T19:30:05.112Z,95066.63
2022-08-02T19:32:40.742Z,95059.91
2022-08-02T19:35:19.838Z,95058.44
2022-08-02T19:38:04.967Z,95053.91
2022-08-02T19:40:31.814Z,95055.22
2022-08-02T19:44:20.868Z,95067.78
2022-08-02T19:45:51.183Z,95055.25
2022-08-02T19:48:33.263Z,95058.94
2022-08-02T19:51:00.774Z,95055.66
2022-08-02T19:53:48.299Z,95056.88
2022-08-02T19:56:25.527Z,95052.88
2022-08-02T19:58:54.621Z,95057.41
2022-08-02T20:01:28.193Z,95053.69
2022-08-02T20:04:06.270Z,95055.22
2022-08-02T20:06:33.084Z,95062.41
2022-08-02T20:09:01.264Z,95063.81
2022-08-02T20:11:34.594Z,95060.25
2022-08-02T20:14:04.207Z,95056.84
2022-08-02T20:16:33.055Z,95059.53
2022-08-02T20:19:00.999Z,95058.94
2022-08-02T20:21:35.942Z,95066.56
2022-08-02T20:24:09.258Z,95061.13
2022-08-02T20:26:39.692Z,95067.81
2022-08-02T20:29:15.182Z,95056.94
2022-08-02T20:31:44.702Z,95065.09
2022-08-02T20:34:11.453Z,95059.91
2022-08-02T20:36:41.636Z,95066.75
2022-08-02T20:39:08.383Z,95044.84
2022-08-02T20:41:45.741Z,95049.75
2022-08-02T20:44:15.474Z,95073.59
2022-08-02T20:46:57.076Z,95072.47
2022-08-02T20:49:41.194Z,95070.38
2022-08-02T20:52:23.679Z,95069.41
2022-08-02T20:54:51.731Z,95072.66
2022-08-02T20:57:18.686Z,95077.97
2022-08-02T20:59:45.374Z,95075.63
2022-08-02T21:02:19.629Z,95083.50
2022-08-02T21:04:46.919Z,95072.53
2022-08-02T21:07:17.879Z,95082.28
2022-08-02T21:09:53.658Z,95093.19
2022-08-02T21:12:22.027Z,95088.59
2022-08-02T21:14:57.113Z,95086.69
2022-08-02T21:17:27.654Z,95088.03
2022-08-02T21:20:08.810Z,95091.91
2022-08-02T21:22:36.193Z,95087.22
2022-08-02T21:25:03.045Z,95079.88
2022-08-02T21:27:53.339Z,95092.06
2022-08-02T21:30:24.274Z,95090.38
2022-08-02T21:32:54.636Z,95095.03
2022-08-02T21:35:24.762Z,95090.00
2022-08-02T21:37:58.071Z,95092.50
2022-08-02T21:40:25.283Z,95083.84
2022-08-02T21:42:54.004Z,95081.66
2022-08-02T21:45:20.708Z,95095.47
2022-08-02T21:47:48.466Z,95094.81
2022-08-02T21:50:16.238Z,95088.88
2022-08-02T21:52:52.190Z,95091.06
2022-08-02T21:55:23.938Z,95089.88
2022-08-02T21:57:51.168Z,95088.88
2022-08-02T22:00:28.490Z,95086.25
2022-08-02T22:02:55.530Z,95093.28
2022-08-02T22:05:22.422Z,95099.63
2022-08-02T22:07:50.534Z,95095.25
2022-08-02T22:10:17.799Z,95100.41
2022-08-02T22:12:44.903Z,95095.03
2022-08-02T22:15:12.020Z,95104.31
2022-08-02T22:17:51.597Z,95098.63
2022-08-02T22:20:21.193Z,95098.22
2022-08-02T22:22:52.554Z,95100.56
2022-08-02T22:25:27.318Z,95107.38
2022-08-02T22:28:37.472Z,95102.59
2022-08-02T22:30:58.087Z,95098.34
2022-08-02T22:34:00.493Z,95097.88
2022-08-02T22:36:30.860Z,95087.03
2022-08-02T22:38:58.023Z,95090.03
2022-08-02T22:41:24.855Z,95097.22
2022-08-02T22:43:51.651Z,95092.59
2022-08-02T22:46:18.579Z,95079.53
2022-08-02T22:48:45.747Z,95078.84
2022-08-02T22:51:13.481Z,95078.03
2022-08-02T22:53:41.749Z,95080.50
2022-08-02T22:56:09.596Z,95079.72
2022-08-02T22:59:00.205Z,95023.50
2022-08-02T22:59:07.836Z,95088.81
2022-08-02T23:01:23.287Z,95071.09
2022-08-02T23:03:50.135Z,95092.34
2022-08-02T23:06:19.184Z,95091.72
2022-08-02T23:08:50.166Z,95092.31
2022-08-02T23:11:16.971Z,95103.41
2022-08-02T23:13:43.985Z,95091.00
2022-08-02T23:16:29.252Z,95091.72
2022-08-02T23:19:25.400Z,95090.31
2022-08-02T23:22:01.449Z,95094.66
2022-08-02T23:24:30.530Z,95094.25
2022-08-02T23:26:57.336Z,95091.31
2022-08-02T23:29:24.174Z,95086.81
2022-08-02T23:31:50.886Z,95100.75
2022-08-02T23:34:17.763Z,95092.50
2022-08-02T23:36:44.473Z,95091.47
2022-08-02T23:39:11.271Z,95108.47
2022-08-02T23:41:38.279Z,95105.16
2022-08-02T23:44:14.225Z,95099.44
2022-08-02T23:46:45.940Z,95097.50
2022-08-02T23:49:14.437Z,95092.69
2022-08-02T23:51:41.473Z,95097.97
2022-08-02T23:54:08.816Z,95097.63
2022-08-02T23:56:36.969Z,95091.81
2022-08-02T23:59:03.878Z,95103.41
